<?xml version="1.0" encoding="UTF-8" standalone="yes"?>
<gpx xmlns="http://www.topografix.com/GPX/1/1" xmlns:gpxx="http://www.garmin.com/xmlschemas/GpxExtensions/v3" xmlns:rcxx="http://www.routeconverter.de/xmlschemas/RouteCatalogExtensions/1.0" xmlns:nmea="http://trekbuddy.net/2009/01/gpx/nmea" version="1.1" creator="Generated by Christian Pesch's RouteConverter. See http://www.routeconverter.de">
    <trk>
        <name>Zwergenweg 5</name>
        <trkseg>
            <trkpt lon="9.573372602462769" lat="49.99567770464199">
                <ele>164.0</ele>
                <time>2010-08-01T14:55:41.462Z</time>
                <name>Lohr</name>
            </trkpt>
            <trkpt lon="9.573651552200317" lat="49.99609841875685">
                <ele>164.0</ele>
                <time>2010-08-01T14:56:48.226Z</time>
                <name>Lohr</name>
            </trkpt>
            <trkpt lon="9.573973417282104" lat="49.9960501402749">
                <ele>162.0</ele>
                <time>2010-08-01T14:56:53.809Z</time>
                <name>Lohr</name>
            </trkpt>
            <trkpt lon="9.5745849609375" lat="49.99582943802585">
                <ele>158.0</ele>
                <time>2010-08-01T14:56:59.294Z</time>
                <name>Lohr</name>
            </trkpt>
            <trkpt lon="9.57509994506836" lat="49.99562942573764">
                <ele>158.0</ele>
                <time>2010-08-01T14:57:04.933Z</time>
                <name>Lohr</name>
            </trkpt>
            <trkpt lon="9.575421810150146" lat="49.995608734763785">
                <ele>156.0</ele>
                <time>2010-08-01T14:57:15.773Z</time>
                <name>Lohr</name>
            </trkpt>
            <trkpt lon="9.575518369674683" lat="49.99573288047335">
                <ele>156.0</ele>
                <time>2010-08-01T14:57:20.921Z</time>
                <name>Lohr</name>
            </trkpt>
            <trkpt lon="9.576398134231567" lat="49.99531216316017">
                <ele>161.0</ele>
                <time>2010-08-01T14:57:29.652Z</time>
                <name>Lohr</name>
            </trkpt>
            <trkpt lon="9.577170610427856" lat="49.995546661788794">
                <ele>155.0</ele>
                <time>2010-08-01T14:57:37.065Z</time>
                <name>Lohr</name>
            </trkpt>
            <trkpt lon="9.577288627624512" lat="49.99531216316017">
                <ele>156.0</ele>
                <time>2010-08-01T14:57:45.463Z</time>
                <name>Lohr</name>
            </trkpt>
            <trkpt lon="9.577943086624146" lat="49.995091457523834">
                <ele>153.0</ele>
                <time>2010-08-01T14:57:51.719Z</time>
                <name>Lohr</name>
            </trkpt>
            <trkpt lon="9.578393697738647" lat="49.9950017955697">
                <ele>153.0</ele>
                <time>2010-08-01T14:57:57.710Z</time>
                <name>Lohr</name>
            </trkpt>
            <trkpt lon="9.57908034324646" lat="49.99493972181124">
                <ele>153.0</ele>
                <time>2010-08-01T14:58:06.856Z</time>
                <name>Lohr</name>
            </trkpt>
            <trkpt lon="9.580378532409668" lat="49.994884545069766">
                <ele>153.0</ele>
                <time>2010-08-01T14:58:13.796Z</time>
                <name>Lohr</name>
            </trkpt>
            <trkpt lon="9.5815908908844" lat="49.99496041307295">
                <ele>151.0</ele>
                <time>2010-08-01T14:58:19.591Z</time>
                <name>Lohr</name>
            </trkpt>
            <trkpt lon="9.583039283752441" lat="49.99517422225616">
                <ele>153.0</ele>
                <time>2010-08-01T14:58:41.683Z</time>
                <name>Lohr</name>
            </trkpt>
            <trkpt lon="9.583704471588135" lat="49.99629842909422">
                <ele>149.0</ele>
                <time>2010-08-01T14:59:31.676Z</time>
                <name>Lohr</name>
            </trkpt>
            <trkpt lon="9.584187269210815" lat="49.99687776468675">
                <ele>152.0</ele>
                <time>2010-08-01T14:59:37.793Z</time>
                <name>Lohr</name>
            </trkpt>
            <trkpt lon="9.58508849143982" lat="49.99756744081472">
                <ele>154.0</ele>
                <time>2010-08-01T14:59:42.665Z</time>
                <name>Lohr</name>
            </trkpt>
            <trkpt lon="9.585978984832764" lat="49.99815365774542">
                <ele>152.0</ele>
                <time>2010-08-01T14:59:48.958Z</time>
                <name>Lohr</name>
            </trkpt>
            <trkpt lon="9.586751461029053" lat="49.9986571089338">
                <ele>169.0</ele>
                <time>2010-08-01T15:00:25.491Z</time>
                <name>Lohr</name>
            </trkpt>
            <trkpt lon="9.587717056274414" lat="49.99927089845661">
                <ele>157.0</ele>
                <time>2010-08-01T15:00:30.480Z</time>
                <name>Lohr</name>
            </trkpt>
            <trkpt lon="9.588435888290405" lat="49.999712270348724">
                <ele>151.0</ele>
                <time>2010-08-01T15:00:36.351Z</time>
                <name>Lohr</name>
            </trkpt>
            <trkpt lon="9.588907957077026" lat="50.000001918450884">
                <ele>162.0</ele>
                <time>2010-08-01T15:00:44.093Z</time>
                <name>Lohr</name>
            </trkpt>
            <trkpt lon="9.589369297027588" lat="50.00026397951585">
                <ele>162.0</ele>
                <time>2010-08-01T15:01:22.551Z</time>
                <name>Lohr</name>
            </trkpt>
            <trkpt lon="9.590120315551758" lat="50.00067775723633">
                <ele>151.0</ele>
                <time>2010-08-01T15:01:27.978Z</time>
                <name>Lohr</name>
            </trkpt>
            <trkpt lon="9.59079623222351" lat="50.00098808818964">
                <ele>163.0</ele>
                <time>2010-08-01T15:01:33.589Z</time>
                <name>Lohr</name>
            </trkpt>
            <trkpt lon="9.591397047042847" lat="50.0012294553239">
                <ele>176.0</ele>
                <time>2010-08-01T15:31:32.052Z</time>
                <name>Lohr</name>
            </trkpt>
            <trkpt lon="9.59206223487854" lat="50.00151909428548">
                <ele>151.0</ele>
                <time>2010-08-01T15:32:02.657Z</time>
                <name>Lohr</name>
            </trkpt>
            <trkpt lon="9.593092203140259" lat="50.00196734161924">
                <ele>170.0</ele>
                <time>2010-08-01T15:32:09.880Z</time>
                <name>Lohr</name>
            </trkpt>
            <trkpt lon="9.593778848648071" lat="50.00235352058603">
                <ele>154.0</ele>
                <time>2010-08-01T15:32:16.545Z</time>
                <name>Lohr</name>
            </trkpt>
            <trkpt lon="9.59432601928711" lat="50.002712112563145">
                <ele>154.0</ele>
                <time>2010-08-01T15:32:22.977Z</time>
                <name>Lohr</name>
            </trkpt>
            <trkpt lon="9.594873189926147" lat="50.003050014093745">
                <ele>149.0</ele>
                <time>2010-08-01T15:32:30.390Z</time>
                <name>Steinbach</name>
            </trkpt>
            <trkpt lon="9.595216512680054" lat="50.00325689140963">
                <ele>149.0</ele>
                <time>2010-08-01T15:32:36.123Z</time>
                <name>Steinbach</name>
            </trkpt>
            <trkpt lon="9.595613479614258" lat="50.003422392621324">
                <ele>152.0</ele>
                <time>2010-08-01T15:32:43.257Z</time>
                <name>Steinbach</name>
            </trkpt>
            <trkpt lon="9.595956802368164" lat="50.00364306001722">
                <ele>152.0</ele>
                <time>2010-08-01T15:32:50.137Z</time>
                <name>Steinbach</name>
            </trkpt>
            <trkpt lon="9.5965576171875" lat="50.00406370443475">
                <ele>149.0</ele>
                <time>2010-08-01T15:33:31.472Z</time>
                <name>Steinbach</name>
            </trkpt>
            <trkpt lon="9.59731936454773" lat="50.00460846796409">
                <ele>151.0</ele>
                <time>2010-08-01T15:33:37.461Z</time>
                <name>Steinbach</name>
            </trkpt>
            <trkpt lon="9.598381519317627" lat="50.00542904947461">
                <ele>155.0</ele>
                <time>2010-08-01T15:33:43.540Z</time>
                <name>Steinbach</name>
            </trkpt>
            <trkpt lon="9.598832130432129" lat="50.005863469308984">
                <ele>154.0</ele>
                <time>2010-08-01T15:33:49.892Z</time>
                <name>Steinbach</name>
            </trkpt>
            <trkpt lon="9.59906816482544" lat="50.00615997583043">
                <ele>154.0</ele>
                <time>2010-08-01T15:34:04.668Z</time>
                <name>Steinbach</name>
            </trkpt>
            <trkpt lon="9.599368572235107" lat="50.006463375959044">
                <ele>152.0</ele>
                <time>2010-08-01T15:34:11.452Z</time>
                <name>Steinbach</name>
            </trkpt>
            <trkpt lon="9.599840641021729" lat="50.00680125112109">
                <ele>151.0</ele>
                <time>2010-08-01T15:34:17.417Z</time>
                <name>Steinbach</name>
            </trkpt>
            <trkpt lon="9.600838422775269" lat="50.0074563084446">
                <ele>151.0</ele>
                <time>2010-08-01T15:34:24.877Z</time>
                <name>Steinbach</name>
            </trkpt>
            <trkpt lon="9.602082967758179" lat="50.00822857508554">
                <ele>144.0</ele>
                <time>2010-08-01T15:35:07.810Z</time>
                <name>Steinbach</name>
            </trkpt>
            <trkpt lon="9.603145122528076" lat="50.00891119330255">
                <ele>151.0</ele>
                <time>2010-08-01T15:35:14.451Z</time>
                <name>Steinbach</name>
            </trkpt>
            <trkpt lon="9.603917598724365" lat="50.008924983469655">
                <ele>151.0</ele>
                <time>2010-08-01T15:35:52.896Z</time>
                <name>Steinbach</name>
            </trkpt>
            <trkpt lon="9.604346752166748" lat="50.0088008718233">
                <ele>151.0</ele>
                <time>2010-08-01T15:35:58.873Z</time>
                <name>Steinbach</name>
            </trkpt>
            <trkpt lon="9.60503339767456" lat="50.00866296961812">
                <ele>153.0</ele>
                <time>2010-08-01T15:36:04.758Z</time>
                <name>Steinbach</name>
            </trkpt>
            <trkpt lon="9.605580568313599" lat="50.00853196215668">
                <ele>155.0</ele>
                <time>2010-08-01T15:36:11.057Z</time>
                <name>Steinbach</name>
            </trkpt>
            <trkpt lon="9.605977535247803" lat="50.00831131720395">
                <ele>155.0</ele>
                <time>2010-08-01T15:36:19.382Z</time>
                <name>Steinbach</name>
            </trkpt>
            <trkpt lon="9.606267213821411" lat="50.00855954270455">
                <ele>157.0</ele>
                <time>2010-08-01T15:36:28.888Z</time>
                <name>Steinbach</name>
            </trkpt>
            <trkpt lon="9.606599807739258" lat="50.008793976722444">
                <ele>156.0</ele>
                <time>2010-08-01T15:36:34.766Z</time>
                <name>Steinbach</name>
            </trkpt>
            <trkpt lon="9.607082605361938" lat="50.008966353947216">
                <ele>156.0</ele>
                <time>2010-08-01T15:37:13.179Z</time>
                <name>Steinbach</name>
            </trkpt>
            <trkpt lon="9.607597589492798" lat="50.00910425528192">
                <ele>158.0</ele>
                <time>2010-08-01T15:37:18.920Z</time>
                <name>Steinbach</name>
            </trkpt>
            <trkpt lon="9.607930183410645" lat="50.0091732058009">
                <ele>160.0</ele>
                <time>2010-08-01T15:37:24.798Z</time>
                <name>Steinbach</name>
            </trkpt>
            <trkpt lon="9.608477354049683" lat="50.009049094795515">
                <ele>160.0</ele>
                <time>2010-08-01T15:37:32.298Z</time>
                <name>Steinbach</name>
            </trkpt>
            <trkpt lon="9.609206914901733" lat="50.00882155711994">
                <ele>163.0</ele>
                <time>2010-08-01T15:37:37.499Z</time>
                <name>Steinbach</name>
            </trkpt>
            <trkpt lon="9.609657526016235" lat="50.008793976722444">
                <ele>166.0</ele>
                <time>2010-08-01T15:37:43.101Z</time>
                <name>Steinbach</name>
            </trkpt>
            <trkpt lon="9.610193967819214" lat="50.00874571098869">
                <ele>165.0</ele>
                <time>2010-08-01T15:37:49.713Z</time>
                <name>Steinbach</name>
            </trkpt>
            <trkpt lon="9.611384868621826" lat="50.00868365497412">
                <ele>167.0</ele>
                <time>2010-08-01T15:37:55.596Z</time>
                <name>Steinbach</name>
            </trkpt>
            <trkpt lon="9.612350463867188" lat="50.008504381592985">
                <ele>168.0</ele>
                <time>2010-08-01T15:38:02.166Z</time>
                <name>Steinbach</name>
            </trkpt>
            <trkpt lon="9.61276888847351" lat="50.00842853496122">
                <ele>168.0</ele>
                <time>2010-08-01T15:38:08.151Z</time>
                <name>Steinbach</name>
            </trkpt>
            <trkpt lon="9.613316059112549" lat="50.008421639806954">
                <ele>170.0</ele>
                <time>2010-08-01T15:38:15.876Z</time>
                <name>Steinbach</name>
            </trkpt>
            <trkpt lon="9.614195823669434" lat="50.008497486449606">
                <ele>172.0</ele>
                <time>2010-08-01T15:38:23.532Z</time>
                <name>Steinbach</name>
            </trkpt>
            <trkpt lon="9.61502194404602" lat="50.00856643783905">
                <ele>174.0</ele>
                <time>2010-08-01T15:38:31.991Z</time>
                <name>Steinbach</name>
            </trkpt>
            <trkpt lon="9.615901708602905" lat="50.008656074497466">
                <ele>176.0</ele>
                <time>2010-08-01T15:38:37.919Z</time>
                <name>Steinbach</name>
            </trkpt>
            <trkpt lon="9.617650508880615" lat="50.00871813054766">
                <ele>182.0</ele>
                <time>2010-08-01T15:39:08.645Z</time>
                <name>Nantenbach</name>
            </trkpt>
            <trkpt lon="9.61902379989624" lat="50.0086215988794">
                <ele>190.0</ele>
                <time>2010-08-01T15:39:16.192Z</time>
                <name>Nantenbach</name>
            </trkpt>
            <trkpt lon="9.619646072387695" lat="50.00844232526679">
                <ele>195.0</ele>
                <time>2010-08-01T15:39:22.565Z</time>
                <name>Nantenbach</name>
            </trkpt>
            <trkpt lon="9.620118141174316" lat="50.00819409916082">
                <ele>195.0</ele>
                <time>2010-08-01T15:39:30.908Z</time>
                <name>Nantenbach</name>
            </trkpt>
            <trkpt lon="9.62076187133789" lat="50.008221679902576">
                <ele>206.0</ele>
                <time>2010-08-01T15:39:38.123Z</time>
                <name>Nantenbach</name>
            </trkpt>
            <trkpt lon="9.621963500976562" lat="50.00816651840323">
                <ele>217.0</ele>
                <time>2010-08-01T15:39:43.745Z</time>
                <name>Nantenbach</name>
            </trkpt>
            <trkpt lon="9.62277889251709" lat="50.00806998562707">
                <ele>225.0</ele>
                <time>2010-08-01T15:39:57.803Z</time>
                <name>Nantenbach</name>
            </trkpt>
            <trkpt lon="9.623347520828247" lat="50.00806998562707">
                <ele>233.0</ele>
                <time>2010-08-01T15:40:04.033Z</time>
                <name>Nantenbach</name>
            </trkpt>
            <trkpt lon="9.624130725860596" lat="50.00811135684061">
                <ele>237.0</ele>
                <time>2010-08-01T15:40:08.666Z</time>
                <name>Nantenbach</name>
            </trkpt>
            <trkpt lon="9.624806642532349" lat="50.00817341359411">
                <ele>241.0</ele>
                <time>2010-08-01T15:40:15.618Z</time>
                <name>Nantenbach</name>
            </trkpt>
            <trkpt lon="9.625868797302246" lat="50.00837337369929">
                <ele>249.0</ele>
                <time>2010-08-01T15:40:20.897Z</time>
                <name>Nantenbach</name>
            </trkpt>
            <trkpt lon="9.62652325630188" lat="50.00843543011452">
                <ele>258.0</ele>
                <time>2010-08-01T15:40:31.647Z</time>
                <name>Nantenbach</name>
            </trkpt>
            <trkpt lon="9.627091884613037" lat="50.00854575243259">
                <ele>269.0</ele>
                <time>2010-08-01T15:40:48.951Z</time>
                <name>Nantenbach</name>
            </trkpt>
            <trkpt lon="9.627885818481445" lat="50.00859401836715">
                <ele>269.0</ele>
                <time>2010-08-01T15:40:56.285Z</time>
                <name>Nantenbach</name>
            </trkpt>
            <trkpt lon="9.628604650497437" lat="50.008697445206494">
                <ele>281.0</ele>
                <time>2010-08-01T15:41:01.790Z</time>
                <name>Nantenbach</name>
            </trkpt>
            <trkpt lon="9.628872871398926" lat="50.008780186517754">
                <ele>295.0</ele>
                <time>2010-08-01T15:41:07.461Z</time>
                <name>Nantenbach</name>
            </trkpt>
            <trkpt lon="9.629441499710083" lat="50.009097360224594">
                <ele>295.0</ele>
                <time>2010-08-01T15:41:12.961Z</time>
                <name>Nantenbach</name>
            </trkpt>
            <trkpt lon="9.629945755004883" lat="50.00943521687083">
                <ele>307.0</ele>
                <time>2010-08-01T15:41:17.187Z</time>
                <name>Nantenbach</name>
            </trkpt>
            <trkpt lon="9.63053584098816" lat="50.00971101645395">
                <ele>311.0</ele>
                <time>2010-08-01T15:41:21.343Z</time>
                <name>Nantenbach</name>
            </trkpt>
            <trkpt lon="9.63101863861084" lat="50.00993165498091">
                <ele>311.0</ele>
                <time>2010-08-01T15:41:28.933Z</time>
                <name>Nantenbach</name>
            </trkpt>
            <trkpt lon="9.6315336227417" lat="50.01022813640644">
                <ele>319.0</ele>
                <time>2010-08-01T15:41:34.058Z</time>
                <name>Nantenbach</name>
            </trkpt>
            <trkpt lon="9.632080793380737" lat="50.010552195407364">
                <ele>314.0</ele>
                <time>2010-08-01T15:41:39.474Z</time>
                <name>Nantenbach</name>
            </trkpt>
            <trkpt lon="9.632585048675537" lat="50.01082109377052">
                <ele>319.0</ele>
                <time>2010-08-01T15:41:44.995Z</time>
                <name>Nantenbach</name>
            </trkpt>
            <trkpt lon="9.632949829101562" lat="50.01092451581728">
                <ele>324.0</ele>
                <time>2010-08-01T15:41:49.912Z</time>
                <name>Nantenbach</name>
            </trkpt>
            <trkpt lon="9.633657932281494" lat="50.01094520019993">
                <ele>324.0</ele>
                <time>2010-08-01T15:41:56.209Z</time>
                <name>Nantenbach</name>
            </trkpt>
            <trkpt lon="9.634044170379639" lat="50.01092451581728">
                <ele>325.0</ele>
                <time>2010-08-01T15:42:00.940Z</time>
                <name>Nantenbach</name>
            </trkpt>
            <trkpt lon="9.634891748428345" lat="50.01064872319802">
                <ele>326.0</ele>
                <time>2010-08-01T15:42:08.288Z</time>
                <name>Nantenbach</name>
            </trkpt>
            <trkpt lon="9.635288715362549" lat="50.01051772114943">
                <ele>326.0</ele>
                <time>2010-08-01T15:42:14.446Z</time>
                <name>Nantenbach</name>
            </trkpt>
            <trkpt lon="9.635910987854004" lat="50.01044187769494">
                <ele>321.0</ele>
                <time>2010-08-01T15:42:19.576Z</time>
                <name>Nantenbach</name>
            </trkpt>
            <trkpt lon="9.636447429656982" lat="50.010386718743746">
                <ele>317.0</ele>
                <time>2010-08-01T15:42:25.913Z</time>
                <name>Nantenbach</name>
            </trkpt>
            <trkpt lon="9.637230634689331" lat="50.01013160777102">
                <ele>311.0</ele>
                <time>2010-08-01T15:42:31.987Z</time>
                <name>Nantenbach</name>
            </trkpt>
            <trkpt lon="9.637906551361084" lat="50.0098420207015">
                <ele>311.0</ele>
                <time>2010-08-01T15:42:37.354Z</time>
                <name>Nantenbach</name>
            </trkpt>
            <trkpt lon="9.638700485229492" lat="50.00949727191502">
                <ele>308.0</ele>
                <time>2010-08-01T15:42:43.020Z</time>
                <name>Nantenbach</name>
            </trkpt>
            <trkpt lon="9.639065265655518" lat="50.009469691905274">
                <ele>304.0</ele>
                <time>2010-08-01T15:43:21.277Z</time>
                <name>Nantenbach</name>
            </trkpt>
            <trkpt lon="9.639655351638794" lat="50.009614486779896">
                <ele>293.0</ele>
                <time>2010-08-01T15:43:31.665Z</time>
                <name>Nantenbach</name>
            </trkpt>
            <trkpt lon="9.640545845031738" lat="50.00995233979088">
                <ele>295.0</ele>
                <time>2010-08-01T15:43:37.877Z</time>
                <name>Nantenbach</name>
            </trkpt>
            <trkpt lon="9.64124321937561" lat="50.01016608230595">
                <ele>295.0</ele>
                <time>2010-08-01T15:43:44.186Z</time>
                <name>Nantenbach</name>
            </trkpt>
            <trkpt lon="9.642369747161865" lat="50.01040740335784">
                <ele>301.0</ele>
                <time>2010-08-01T15:43:53.491Z</time>
                <name>Sommerhof</name>
            </trkpt>
            <trkpt lon="9.643657207489014" lat="50.01053151085556">
                <ele>308.0</ele>
                <time>2010-08-01T15:43:59.421Z</time>
                <name>Sommerhof</name>
            </trkpt>
            <trkpt lon="9.644805192947388" lat="50.0106349335255">
                <ele>311.0</ele>
                <time>2010-08-01T15:44:06.410Z</time>
                <name>Sommerhof</name>
            </trkpt>
            <trkpt lon="9.646103382110596" lat="50.01085556781086">
                <ele>312.0</ele>
                <time>2010-08-01T15:44:14.456Z</time>
                <name>Sommerhof</name>
            </trkpt>
            <trkpt lon="9.647412300109863" lat="50.01104862197962">
                <ele>314.0</ele>
                <time>2010-08-01T15:44:21.544Z</time>
                <name>Sommerhof</name>
            </trkpt>
            <trkpt lon="9.648646116256714" lat="50.01124857012256">
                <ele>313.0</ele>
                <time>2010-08-01T15:44:25.984Z</time>
                <name>Sommerhof</name>
            </trkpt>
            <trkpt lon="9.649375677108765" lat="50.01130372808457">
                <ele>310.0</ele>
                <time>2010-08-01T15:44:30.561Z</time>
                <name>Sommerhof</name>
            </trkpt>
            <trkpt lon="9.650019407272339" lat="50.01131751756518">
                <ele>307.0</ele>
                <time>2010-08-01T15:44:36.545Z</time>
                <name>Sommerhof</name>
            </trkpt>
            <trkpt lon="9.651081562042236" lat="50.01135888598327">
                <ele>303.0</ele>
                <time>2010-08-01T15:45:33.796Z</time>
                <name>Sommerhof</name>
            </trkpt>
            <trkpt lon="9.651896953582764" lat="50.01142093854363">
                <ele>298.0</ele>
                <time>2010-08-01T15:45:39.160Z</time>
                <name>Sommerhof</name>
            </trkpt>
            <trkpt lon="9.652712345123291" lat="50.01146230687269">
                <ele>294.0</ele>
                <time>2010-08-01T15:45:45.448Z</time>
                <name>Sommerhof</name>
            </trkpt>
            <trkpt lon="9.653377532958984" lat="50.01148299102384">
                <ele>289.0</ele>
                <time>2010-08-01T15:45:50.339Z</time>
                <name>Sommerhof</name>
            </trkpt>
            <trkpt lon="9.653806686401367" lat="50.01158641164619">
                <ele>284.0</ele>
                <time>2010-08-01T15:45:54.515Z</time>
                <name>Sommerhof</name>
            </trkpt>
            <trkpt lon="9.654074907302856" lat="50.011731200143544">
                <ele>284.0</ele>
                <time>2010-08-01T15:46:01.267Z</time>
                <name>Sommerhof</name>
            </trkpt>
            <trkpt lon="9.654386043548584" lat="50.0118759882047">
                <ele>284.0</ele>
                <time>2010-08-01T15:46:17.441Z</time>
                <name>Sommerhof</name>
            </trkpt>
            <trkpt lon="9.654901027679443" lat="50.01186909354503">
                <ele>278.0</ele>
                <time>2010-08-01T15:46:22.114Z</time>
                <name>Sommerhof</name>
            </trkpt>
            <trkpt lon="9.655383825302124" lat="50.011779462879076">
                <ele>278.0</ele>
                <time>2010-08-01T15:46:26.923Z</time>
                <name>Sommerhof</name>
            </trkpt>
            <trkpt lon="9.65599536895752" lat="50.011682937359566">
                <ele>275.0</ele>
                <time>2010-08-01T15:46:31.738Z</time>
                <name>Sommerhof</name>
            </trkpt>
            <trkpt lon="9.656639099121094" lat="50.011572622242724">
                <ele>272.0</ele>
                <time>2010-08-01T15:46:36.888Z</time>
                <name>Sommerhof</name>
            </trkpt>
            <trkpt lon="9.657422304153442" lat="50.01143472799058">
                <ele>269.0</ele>
                <time>2010-08-01T15:46:41.781Z</time>
                <name>Sommerhof</name>
            </trkpt>
            <trkpt lon="9.6579909324646" lat="50.01132441230399">
                <ele>265.0</ele>
                <time>2010-08-01T15:46:46.995Z</time>
                <name>Sommerhof</name>
            </trkpt>
            <trkpt lon="9.658387899398804" lat="50.01139335963779">
                <ele>265.0</ele>
                <time>2010-08-01T15:46:52.525Z</time>
                <name>Sommerhof</name>
            </trkpt>
            <trkpt lon="9.658935070037842" lat="50.01155883283534">
                <ele>262.0</ele>
                <time>2010-08-01T15:47:03.257Z</time>
                <name>Sommerhof</name>
            </trkpt>
            <trkpt lon="9.659632444381714" lat="50.01180014689375">
                <ele>259.0</ele>
                <time>2010-08-01T15:47:10.052Z</time>
                <name>Sommerhof</name>
            </trkpt>
            <trkpt lon="9.660544395446777" lat="50.01206903827432">
                <ele>255.0</ele>
                <time>2010-08-01T15:47:16.566Z</time>
                <name>Sommerhof</name>
            </trkpt>
            <trkpt lon="9.661349058151245" lat="50.01228966597572">
                <ele>253.0</ele>
                <time>2010-08-01T15:47:21.432Z</time>
                <name>Sommerhof</name>
            </trkpt>
            <trkpt lon="9.661628007888794" lat="50.01251718723187">
                <ele>253.0</ele>
                <time>2010-08-01T15:47:26.539Z</time>
                <name>Sommerhof</name>
            </trkpt>
            <trkpt lon="9.661520719528198" lat="50.01333763372477">
                <ele>247.0</ele>
                <time>2010-08-01T15:47:31.380Z</time>
                <name>Sommerhof</name>
            </trkpt>
            <trkpt lon="9.661434888839722" lat="50.01400639067161">
                <ele>232.0</ele>
                <time>2010-08-01T15:47:36.180Z</time>
                <name>Sommerhof</name>
            </trkpt>
            <trkpt lon="9.661434888839722" lat="50.01484060020876">
                <ele>227.0</ele>
                <time>2010-08-01T15:47:40.949Z</time>
                <name>Sommerhof</name>
            </trkpt>
            <trkpt lon="9.661434888839722" lat="50.01552312451271">
                <ele>216.0</ele>
                <time>2010-08-01T15:47:48.889Z</time>
                <name>Sommerhof</name>
            </trkpt>
            <trkpt lon="9.661413431167603" lat="50.01609533438739">
                <ele>216.0</ele>
                <time>2010-08-01T15:47:53.208Z</time>
                <name>Sommerhof</name>
            </trkpt>
            <trkpt lon="9.661434888839722" lat="50.016702007294114">
                <ele>209.0</ele>
                <time>2010-08-01T15:47:58.325Z</time>
                <name>Sommerhof</name>
            </trkpt>
            <trkpt lon="9.66123104095459" lat="50.0170742800581">
                <ele>234.0</ele>
                <time>2010-08-01T15:48:03.699Z</time>
                <name>Sommerhof</name>
            </trkpt>
            <trkpt lon="9.660909175872803" lat="50.017515488487874">
                <ele>221.0</ele>
                <time>2010-08-01T15:55:33.071Z</time>
                <name>Sommerhof</name>
            </trkpt>
            <trkpt lon="9.660844802856445" lat="50.01803941823599">
                <ele>224.0</ele>
                <time>2010-08-01T15:55:38.717Z</time>
                <name>Sommerhof</name>
            </trkpt>
            <trkpt lon="9.661016464233398" lat="50.01828759349101">
                <ele>224.0</ele>
                <time>2010-08-01T15:55:45.113Z</time>
                <name>Sommerhof</name>
            </trkpt>
            <trkpt lon="9.661595821380615" lat="50.018356530834325">
                <ele>211.0</ele>
                <time>2010-08-01T15:55:50.521Z</time>
                <name>Sommerhof</name>
            </trkpt>
            <trkpt lon="9.662668704986572" lat="50.01981797923684">
                <ele>230.0</ele>
                <time>2010-08-01T15:55:55.408Z</time>
                <name>Sommerhof</name>
            </trkpt>
            <trkpt lon="9.663398265838623" lat="50.02134831623464">
                <ele>245.0</ele>
                <time>2010-08-01T15:56:00.951Z</time>
                <name>Sommerhof</name>
            </trkpt>
            <trkpt lon="9.664406776428223" lat="50.022671811624065">
                <ele>252.0</ele>
                <time>2010-08-01T15:56:05.316Z</time>
                <name>Sommerhof</name>
            </trkpt>
            <trkpt lon="9.664149284362793" lat="50.02341626175704">
                <ele>253.0</ele>
                <time>2010-08-01T15:56:10.725Z</time>
                <name>Sommerhof</name>
            </trkpt>
            <trkpt lon="9.663784503936768" lat="50.0243812725364">
                <ele>266.0</ele>
                <time>2010-08-01T15:56:16.550Z</time>
                <name>Sommerhof</name>
            </trkpt>
            <trkpt lon="9.663387537002563" lat="50.025366942104306">
                <ele>258.0</ele>
                <time>2010-08-01T15:56:22.770Z</time>
                <name>Neuendorf</name>
            </trkpt>
            <trkpt lon="9.663065671920776" lat="50.025883893582076">
                <ele>278.0</ele>
                <time>2010-08-01T15:56:42.140Z</time>
                <name>Neuendorf</name>
            </trkpt>
            <trkpt lon="9.662818908691406" lat="50.02617338397941">
                <ele>258.0</ele>
                <time>2010-08-01T15:56:46.179Z</time>
                <name>Neuendorf</name>
            </trkpt>
            <trkpt lon="9.662561416625977" lat="50.0264077320708">
                <ele>284.0</ele>
                <time>2010-08-01T15:56:52.453Z</time>
                <name>Neuendorf</name>
            </trkpt>
            <trkpt lon="9.662110805511475" lat="50.02680060718826">
                <ele>284.0</ele>
                <time>2010-08-01T15:56:59.720Z</time>
                <name>Neuendorf</name>
            </trkpt>
            <trkpt lon="9.661520719528198" lat="50.02722104892965">
                <ele>284.0</ele>
                <time>2010-08-01T15:57:04.868Z</time>
                <name>Neuendorf</name>
            </trkpt>
            <trkpt lon="9.660844802856445" lat="50.02814462934094">
                <ele>275.0</ele>
                <time>2010-08-01T15:57:23.343Z</time>
                <name>Neuendorf</name>
            </trkpt>
            <trkpt lon="9.660801887512207" lat="50.0289165635219">
                <ele>274.0</ele>
                <time>2010-08-01T15:57:31.056Z</time>
                <name>Neuendorf</name>
            </trkpt>
            <trkpt lon="9.660758972167969" lat="50.02959199575272">
                <ele>270.0</ele>
                <time>2010-08-01T15:57:36.014Z</time>
                <name>Neuendorf</name>
            </trkpt>
            <trkpt lon="9.661016464233398" lat="50.03040525869132">
                <ele>270.0</ele>
                <time>2010-08-01T15:57:40.179Z</time>
                <name>Neuendorf</name>
            </trkpt>
            <trkpt lon="9.661252498626709" lat="50.03088769629941">
                <ele>283.0</ele>
                <time>2010-08-01T15:57:47.299Z</time>
                <name>Neuendorf</name>
            </trkpt>
            <trkpt lon="9.660887718200684" lat="50.03130121039191">
                <ele>287.0</ele>
                <time>2010-08-01T15:57:51.754Z</time>
                <name>Neuendorf</name>
            </trkpt>
            <trkpt lon="9.660072326660156" lat="50.03156310080884">
                <ele>281.0</ele>
                <time>2010-08-01T15:57:55.721Z</time>
                <name>Neuendorf</name>
            </trkpt>
            <trkpt lon="9.65947151184082" lat="50.03170093729674">
                <ele>279.0</ele>
                <time>2010-08-01T15:58:00.403Z</time>
                <name>Neuendorf</name>
            </trkpt>
            <trkpt lon="9.658892154693604" lat="50.03172850454686">
                <ele>279.0</ele>
                <time>2010-08-01T15:58:07.283Z</time>
                <name>Neuendorf</name>
            </trkpt>
            <trkpt lon="9.657948017120361" lat="50.03163201910224">
                <ele>277.0</ele>
                <time>2010-08-01T15:58:14.346Z</time>
                <name>Neuendorf</name>
            </trkpt>
            <trkpt lon="9.657690525054932" lat="50.031811206202235">
                <ele>268.0</ele>
                <time>2010-08-01T15:58:19.166Z</time>
                <name>Neuendorf</name>
            </trkpt>
            <trkpt lon="9.65749740600586" lat="50.03143904763149">
                <ele>268.0</ele>
                <time>2010-08-01T15:58:25.180Z</time>
                <name>Neuendorf</name>
            </trkpt>
            <trkpt lon="9.65696096420288" lat="50.03097039940277">
                <ele>261.0</ele>
                <time>2010-08-01T15:58:33.973Z</time>
                <name>Neuendorf</name>
            </trkpt>
            <trkpt lon="9.656939506530762" lat="50.030377690681625">
                <ele>241.0</ele>
                <time>2010-08-01T15:58:58.499Z</time>
                <name>Neuendorf</name>
            </trkpt>
            <trkpt lon="9.656682014465332" lat="50.03010200971424">
                <ele>241.0</ele>
                <time>2010-08-01T15:59:04.371Z</time>
                <name>Neuendorf</name>
            </trkpt>
            <trkpt lon="9.655802249908447" lat="50.03017093010444">
                <ele>225.0</ele>
                <time>2010-08-01T15:59:09.504Z</time>
                <name>Neuendorf</name>
            </trkpt>
            <trkpt lon="9.65550184249878" lat="50.03028120252305">
                <ele>225.0</ele>
                <time>2010-08-01T15:59:19.608Z</time>
                <name>Neuendorf</name>
            </trkpt>
            <trkpt lon="9.655137062072754" lat="50.030150253997775">
                <ele>209.0</ele>
                <time>2010-08-01T15:59:24.016Z</time>
                <name>Neuendorf</name>
            </trkpt>
            <trkpt lon="9.65573787689209" lat="50.02979875882234">
                <ele>225.0</ele>
                <time>2010-08-01T15:59:29.204Z</time>
                <name>Neuendorf</name>
            </trkpt>
            <trkpt lon="9.655619859695435" lat="50.02967470108738">
                <ele>225.0</ele>
                <time>2010-08-01T15:59:34.905Z</time>
                <name>Neuendorf</name>
            </trkpt>
            <trkpt lon="9.656049013137817" lat="50.029474829618145">
                <ele>187.0</ele>
                <time>2010-08-01T15:59:40.493Z</time>
                <name>Neuendorf</name>
            </trkpt>
            <trkpt lon="9.65525507926941" lat="50.02941969251472">
                <ele>178.0</ele>
                <time>2010-08-01T15:59:45.343Z</time>
                <name>Neuendorf</name>
            </trkpt>
            <trkpt lon="9.65450406074524" lat="50.02939901608463">
                <ele>171.0</ele>
                <time>2010-08-01T15:59:51.359Z</time>
                <name>Neuendorf</name>
            </trkpt>
            <trkpt lon="9.654139280319214" lat="50.029426584656115">
                <ele>171.0</ele>
                <time>2010-08-01T15:59:56.936Z</time>
                <name>Neuendorf</name>
            </trkpt>
            <trkpt lon="9.653334617614746" lat="50.029778082555424">
                <ele>161.0</ele>
                <time>2010-08-01T16:00:33.986Z</time>
                <name>Neuendorf</name>
            </trkpt>
            <trkpt lon="9.65296983718872" lat="50.029316310275206">
                <ele>164.0</ele>
                <time>2010-08-01T16:00:40.098Z</time>
                <name>Neuendorf</name>
            </trkpt>
            <trkpt lon="9.652293920516968" lat="50.02874425786069">
                <ele>181.0</ele>
                <time>2010-08-01T16:01:12.894Z</time>
                <name>Neuendorf</name>
            </trkpt>
            <trkpt lon="9.650545120239258" lat="50.027724195684236">
                <ele>186.0</ele>
                <time>2010-08-01T16:01:17.674Z</time>
                <name>Neuendorf</name>
            </trkpt>
            <trkpt lon="9.648656845092773" lat="50.026986704806475">
                <ele>179.0</ele>
                <time>2010-08-01T16:01:23.892Z</time>
                <name>Neuendorf</name>
            </trkpt>
            <trkpt lon="9.646854400634766" lat="50.02635948402783">
                <ele>162.0</ele>
                <time>2010-08-01T16:01:29.151Z</time>
                <name>Neuendorf</name>
            </trkpt>
            <trkpt lon="9.644075632095337" lat="50.02583564501289">
                <ele>187.0</ele>
                <time>2010-08-01T16:01:34.350Z</time>
                <name>Neuendorf</name>
            </trkpt>
            <trkpt lon="9.641221761703491" lat="50.025387620270244">
                <ele>189.0</ele>
                <time>2010-08-01T16:01:40.368Z</time>
                <name>Neuendorf</name>
            </trkpt>
            <trkpt lon="9.638657569885254" lat="50.02481552106233">
                <ele>164.0</ele>
                <time>2010-08-01T16:02:18.526Z</time>
                <name>Nantenbach</name>
            </trkpt>
            <trkpt lon="9.634033441543579" lat="50.02348519174135">
                <ele>180.0</ele>
                <time>2010-08-01T16:02:23.736Z</time>
                <name>Nantenbach</name>
            </trkpt>
            <trkpt lon="9.633067846298218" lat="50.02326461544344">
                <ele>167.0</ele>
                <time>2010-08-01T16:02:30.533Z</time>
                <name>Nantenbach</name>
            </trkpt>
            <trkpt lon="9.630053043365479" lat="50.02182395158751">
                <ele>170.0</ele>
                <time>2010-08-01T16:02:54.367Z</time>
                <name>Nantenbach</name>
            </trkpt>
            <trkpt lon="9.627059698104858" lat="50.02085199606309">
                <ele>160.0</ele>
                <time>2010-08-01T16:04:54.514Z</time>
                <name>Nantenbach</name>
            </trkpt>
            <trkpt lon="9.62526798248291" lat="50.020169547454806">
                <ele>165.0</ele>
                <time>2010-08-01T16:04:59.912Z</time>
                <name>Nantenbach</name>
            </trkpt>
            <trkpt lon="9.623808860778809" lat="50.020010997400476">
                <ele>160.0</ele>
                <time>2010-08-01T16:05:06.223Z</time>
                <name>Nantenbach</name>
            </trkpt>
            <trkpt lon="9.62254285812378" lat="50.02068655486642">
                <ele>153.0</ele>
                <time>2010-08-01T16:05:15.731Z</time>
                <name>Nantenbach</name>
            </trkpt>
            <trkpt lon="9.62177038192749" lat="50.02027294938221">
                <ele>152.0</ele>
                <time>2010-08-01T16:05:21.582Z</time>
                <name>Nantenbach</name>
            </trkpt>
            <trkpt lon="9.621555805206299" lat="50.0201350800962">
                <ele>152.0</ele>
                <time>2010-08-01T16:05:31.060Z</time>
                <name>Nantenbach</name>
            </trkpt>
            <trkpt lon="9.621212482452393" lat="50.02006614530481">
                <ele>153.0</ele>
                <time>2010-08-01T16:05:36.405Z</time>
                <name>Nantenbach</name>
            </trkpt>
            <trkpt lon="9.618433713912964" lat="50.018597810757065">
                <ele>151.0</ele>
                <time>2010-08-01T16:05:41.873Z</time>
                <name>Nantenbach</name>
            </trkpt>
            <trkpt lon="9.61652398109436" lat="50.0174603376557">
                <ele>154.0</ele>
                <time>2010-08-01T16:05:48.380Z</time>
                <name>Steinbach</name>
            </trkpt>
            <trkpt lon="9.6145498752594" lat="50.01621253315949">
                <ele>154.0</ele>
                <time>2010-08-01T16:07:30.770Z</time>
                <name>Steinbach</name>
            </trkpt>
            <trkpt lon="9.613004922866821" lat="50.01518531066489">
                <ele>153.0</ele>
                <time>2010-08-01T16:07:44.614Z</time>
                <name>Steinbach</name>
            </trkpt>
            <trkpt lon="9.61177110671997" lat="50.01434421280755">
                <ele>153.0</ele>
                <time>2010-08-01T16:07:49.791Z</time>
                <name>Steinbach</name>
            </trkpt>
            <trkpt lon="9.610612392425537" lat="50.01351688907712">
                <ele>154.0</ele>
                <time>2010-08-01T16:07:55.857Z</time>
                <name>Steinbach</name>
            </trkpt>
            <trkpt lon="9.60978627204895" lat="50.012910175955334">
                <ele>153.0</ele>
                <time>2010-08-01T16:08:01.336Z</time>
                <name>Steinbach</name>
            </trkpt>
            <trkpt lon="9.60829496383667" lat="50.011793252223185">
                <ele>155.0</ele>
                <time>2010-08-01T16:10:30.916Z</time>
                <name>Steinbach</name>
            </trkpt>
            <trkpt lon="9.607844352722168" lat="50.01132441230399">
                <ele>154.0</ele>
                <time>2010-08-01T16:10:37.567Z</time>
                <name>Steinbach</name>
            </trkpt>
            <trkpt lon="9.606921672821045" lat="50.01166914798381">
                <ele>153.0</ele>
                <time>2010-08-01T16:10:43.511Z</time>
                <name>Steinbach</name>
            </trkpt>
            <trkpt lon="9.604883193969727" lat="50.012855019837126">
                <ele>152.0</ele>
                <time>2010-08-01T16:10:49.620Z</time>
                <name>Steinbach</name>
            </trkpt>
            <trkpt lon="9.603488445281982" lat="50.0118897775211">
                <ele>157.0</ele>
                <time>2010-08-01T16:11:25.576Z</time>
                <name>Steinbach</name>
            </trkpt>
            <trkpt lon="9.602758884429932" lat="50.01118651733964">
                <ele>156.0</ele>
                <time>2010-08-01T16:11:32.014Z</time>
                <name>Steinbach</name>
            </trkpt>
            <trkpt lon="9.601750373840332" lat="50.010317769965724">
                <ele>153.0</ele>
                <time>2010-08-01T16:11:36.514Z</time>
                <name>Steinbach</name>
            </trkpt>
            <trkpt lon="9.600119590759277" lat="50.008883612956474">
                <ele>155.0</ele>
                <time>2010-08-01T16:11:40.916Z</time>
                <name>Steinbach</name>
            </trkpt>
            <trkpt lon="9.599089622497559" lat="50.00811135684061">
                <ele>155.0</ele>
                <time>2010-08-01T16:11:45.775Z</time>
                <name>Steinbach</name>
            </trkpt>
            <trkpt lon="9.59728717803955" lat="50.006856414187304">
                <ele>154.0</ele>
                <time>2010-08-01T16:11:52.918Z</time>
                <name>Steinbach</name>
            </trkpt>
            <trkpt lon="9.59681510925293" lat="50.006097916477295">
                <ele>156.0</ele>
                <time>2010-08-01T16:12:04.728Z</time>
                <name>Steinbach</name>
            </trkpt>
            <trkpt lon="9.595248699188232" lat="50.00498083441922">
                <ele>152.0</ele>
                <time>2010-08-01T16:12:25.384Z</time>
                <name>Steinbach</name>
            </trkpt>
            <trkpt lon="9.592480659484863" lat="50.00336722561407">
                <ele>151.0</ele>
                <time>2010-08-01T16:12:30.282Z</time>
                <name>Lohr</name>
            </trkpt>
            <trkpt lon="9.589884281158447" lat="50.00207078271811">
                <ele>149.0</ele>
                <time>2010-08-01T16:12:35.168Z</time>
                <name>Lohr</name>
            </trkpt>
            <trkpt lon="9.587008953094482" lat="50.000746719843505">
                <ele>152.0</ele>
                <time>2010-08-01T16:12:40.105Z</time>
                <name>Lohr</name>
            </trkpt>
            <trkpt lon="9.585485458374023" lat="50.000057089320116">
                <ele>152.0</ele>
                <time>2010-08-01T16:12:45.357Z</time>
                <name>Lohr</name>
            </trkpt>
            <trkpt lon="9.584004878997803" lat="49.99916055485047">
                <ele>151.0</ele>
                <time>2010-08-01T16:12:51.183Z</time>
                <name>Lohr</name>
            </trkpt>
            <trkpt lon="9.583382606506348" lat="49.999505377778824">
                <ele>152.0</ele>
                <time>2010-08-01T16:12:58.156Z</time>
                <name>Lohr</name>
            </trkpt>
            <trkpt lon="9.58207368850708" lat="49.99859503989411">
                <ele>153.0</ele>
                <time>2010-08-01T16:13:02.929Z</time>
                <name>Lohr</name>
            </trkpt>
            <trkpt lon="9.579520225524902" lat="49.99739502271015">
                <ele>154.0</ele>
                <time>2010-08-01T16:13:10.166Z</time>
                <name>Lohr</name>
            </trkpt>
            <trkpt lon="9.577460289001465" lat="49.99638808863057">
                <ele>154.0</ele>
                <time>2010-08-01T16:13:15.340Z</time>
                <name>Lohr</name>
            </trkpt>
            <trkpt lon="9.577009677886963" lat="49.99627773840827">
                <ele>154.0</ele>
                <time>2010-08-01T16:13:23.063Z</time>
                <name>Lohr</name>
            </trkpt>
            <trkpt lon="9.576494693756104" lat="49.99549148574378">
                <ele>156.0</ele>
                <time>2010-08-01T16:13:27.884Z</time>
                <name>Lohr</name>
            </trkpt>
            <trkpt lon="9.575893878936768" lat="49.9955190737742">
                <ele>156.0</ele>
                <time>2010-08-01T16:13:34.891Z</time>
                <name>Lohr</name>
            </trkpt>
            <trkpt lon="9.57506775856018" lat="49.99594668622179">
                <ele>158.0</ele>
                <time>2010-08-01T16:13:48.987Z</time>
                <name>Lohr</name>
            </trkpt>
            <trkpt lon="9.574681520462036" lat="49.995643219715255">
                <ele>158.0</ele>
                <time>2010-08-01T16:13:56.918Z</time>
                <name>Lohr</name>
            </trkpt>
            <trkpt lon="9.574424028396606" lat="49.99574667442127">
                <ele>162.0</ele>
                <time>2010-08-01T16:14:01.886Z</time>
                <name>Lohr</name>
            </trkpt>
            <trkpt lon="9.574273824691772" lat="49.995643219715255">
                <ele>162.0</ele>
                <time>2010-08-01T16:14:06.675Z</time>
                <name>Lohr</name>
            </trkpt>
            <trkpt lon="9.573554992675781" lat="49.99565701368893">
                <ele>164.0</ele>
                <time>2010-08-01T16:14:12.235Z</time>
                <name>Lohr</name>
            </trkpt>
        </trkseg>
    </trk>
</gpx>
